CheckWX is a tool to help pilots better visualize weather data.  It is not intended as a substitute for an official pre-flight weather briefing.

13:05:25 UTC

CWLY METAR
Lytton Airport
Lytton, Canada
Current

1 hour ago

CWLY 261200Z AUTO 21014G26KT 180V240 9SM BKN090 09/03 A2981 RMK SLP098
Observed
Mar-26 @ 12:00 UTC
Wind
  • 210° at 14 KTS
  • Gusting to 26 KTS
Visibility
9 SM
Flight Rules
VFR
Cloud Levels
  • Broken at 9,000' AGL
Temperature
C / 48°F
Dewpoint
C / 37°F
Humidity
66%
Altimeter
29.81" Hg
Pressure
1009.8 hPa
Previous

2 hours ago

CWLY 261100Z AUTO 20017G29KT 9SM FEW075 SCT089 BKN200 BKN220 10/03 A2980 RMK SLP094
Observed
Mar-26 @ 11:00 UTC
Wind
  • 200° at 17 KTS
  • Gusting to 29 KTS
Visibility
9 SM
Flight Rules
VFR
Cloud Levels
  • Few at 7,500' AGL
  • Scattered at 8,900' AGL
  • Broken at 20,000' AGL
  • Broken at 22,000' AGL
Temperature
10°C / 50°F
Dewpoint
C / 37°F
Humidity
62%
Altimeter
29.8" Hg
Pressure
1009.4 hPa
Previous

2 hours ago

CWLY 261056Z AUTO 20019G31KT 9SM FEW080 BKN090 BKN210 10/03 A2980 RMK SLP094
Observed
Mar-26 @ 10:56 UTC
Wind
  • 200° at 19 KTS
  • Gusting to 31 KTS
Visibility
9 SM
Flight Rules
VFR
Cloud Levels
  • Few at 8,000' AGL
  • Broken at 9,000' AGL
  • Broken at 21,000' AGL
Temperature
10°C / 50°F
Dewpoint
C / 37°F
Humidity
62%
Altimeter
29.8" Hg
Pressure
1009.4 hPa